DWD Radarbild

   
[Quelle: ADDS]
METAR
EDLP 212220Z 27007KT 230V310 2700 OVC003 08/08 Q1029 =
AMD EDLP 212151Z 2121/2218 28005KT 4000 BR SCT005 BKN012 TEMPO 2121/2209 2000 -DZ BR OVC004 PROB30 TEMPO 2123/2208 0800 DZ FG OVC001 BECMG 2206/2209 36004KT BECMG 2212/2215 06006KT BECMG 2215/2218 12007KT 7000 BKN020
TAF
AMD EDLP 212151Z 2121/2218 28005KT 4000 BR SCT005 BKN012 TEMPO 2121/2209 2000 -DZ BR OVC004 PROB30 TEMPO 2123/2208 0800 DZ FG OVC001 BECMG 2206/2209 36004KT BECMG 2212/2215 06006KT BECMG 2215/2218 12007KT 7000 BKN020 =
   
   

Meine WettercamWettercam aus Bielefeld Senne - Blickrichtung Süd-Ostjede Min. ein neues Bild

   
Moon phase
Phase:
Abnehmend

Mondphase:
92%

Alter:
17 Tage

Entfernung:
228,829 Km

Zeit:
00:04:24

Datum:
22-02-2019

   
<<  Feb 2019  >>
 Mo  Di  Mi  Do  Fr  Sa  So 
      1  2  3
  4  5  6  7  8  910
11121314151617
18192021222324
25262728